首页
METAR-TAF:

METAR-TAF

机场 :

哈科特港, 尼日利亚

纬度: 04-51N, 经度: 007-01E, 海拔: 18米

当前天气观测

该预报发布于39分钟前的15:00 UTC
风速3节,风向西
温度 34°C
湿度 56%
气压 1009 hPa
能见度10公里或以上
多云层高于1400英尺
少量云层高于2100英尺, 积雨云.

METAR: DNPO 261500Z 28003KT 9999 BKN014 FEW021CB 34/24 Q1009 NOSIG

时间: 16:39 (15:39 UTC)


TAF: 丢失

超过4000个机场的气象观测和天气预报(METAR&TAF报告)。

可查询的气象台以黄色和红色小点在地图上表示。

将鼠标移到小点上方,可查看气象台名称。

然后点击查看天气观测和预报。

如需切换地图:点击带黑十字的绿色按钮放大地图;点击带横线的绿色按钮缩小地图;或者点击绿色箭头查看邻近地区的地图。


METAR-TAF: